createdAt,value
2017-07-28T00:00:15.216Z,18.61
2017-07-28T00:01:11.872Z,18.67
2017-07-28T00:02:08.255Z,18.72
2017-07-28T00:03:04.615Z,18.77
2017-07-28T00:04:00.903Z,18.80
2017-07-28T00:04:57.216Z,18.85
2017-07-28T00:05:53.732Z,18.86
2017-07-28T00:06:50.898Z,18.89
2017-07-28T00:07:48.118Z,18.89
2017-07-28T00:08:44.543Z,18.91
2017-07-28T00:09:40.824Z,18.93
2017-07-28T00:10:38.084Z,18.93
2017-07-28T00:11:34.415Z,18.95
2017-07-28T00:12:31.639Z,18.96
2017-07-28T00:13:28.259Z,18.98
2017-07-28T00:14:24.676Z,18.99
2017-07-28T00:15:21.018Z,19.00
2017-07-28T00:16:17.296Z,19.01
2017-07-28T00:17:14.519Z,19.01
2017-07-28T00:18:10.923Z,19.02
2017-07-28T00:19:07.375Z,19.01
2017-07-28T00:20:03.794Z,19.01
2017-07-28T00:21:00.116Z,19.01
2017-07-28T00:21:57.455Z,19.00
2017-07-28T00:22:54.779Z,19.00
2017-07-28T00:23:52.575Z,18.99
2017-07-28T00:24:49.027Z,18.99
2017-07-28T00:25:46.616Z,18.98
2017-07-28T00:26:43.977Z,18.98
2017-07-28T00:27:44.888Z,18.97
2017-07-28T00:37:52.731Z,18.75
2017-07-28T00:38:49.163Z,18.74
2017-07-28T00:39:45.506Z,18.73
2017-07-28T00:40:41.827Z,18.71
2017-07-28T00:41:38.147Z,18.70
2017-07-28T00:42:34.485Z,18.69
2017-07-28T00:43:31.738Z,18.68
2017-07-28T00:44:28.060Z,18.67
2017-07-28T00:45:25.219Z,18.65
2017-07-28T00:46:22.492Z,18.64
2017-07-28T00:47:19.916Z,18.63
2017-07-28T00:48:16.419Z,18.61
2017-07-28T00:49:12.723Z,18.60
2017-07-28T00:50:09.096Z,18.59
2017-07-28T00:51:07.415Z,18.57
2017-07-28T00:52:03.756Z,18.56
2017-07-28T00:53:00.040Z,18.53
2017-07-28T01:14:58.130Z,18.51
2017-07-28T01:15:54.427Z,18.10
2017-07-28T01:16:50.840Z,18.10
2017-07-28T01:17:47.327Z,18.09
2017-07-28T01:18:43.599Z,18.11
2017-07-28T01:19:41.116Z,18.09
2017-07-28T01:20:37.683Z,18.08
2017-07-28T01:21:33.984Z,18.08
2017-07-28T01:22:30.366Z,18.11
2017-07-28T01:23:40.778Z,18.08
2017-07-28T01:24:37.087Z,18.06
2017-07-28T01:25:33.827Z,18.06
2017-07-28T01:26:30.279Z,18.05
2017-07-28T01:27:26.628Z,18.04
2017-07-28T01:28:23.052Z,18.04
2017-07-28T01:29:19.416Z,18.02
2017-07-28T01:30:15.787Z,18.01
2017-07-28T01:31:12.120Z,17.99
2017-07-28T01:32:08.731Z,17.99
2017-07-28T01:33:05.051Z,17.99
2017-07-28T01:34:03.476Z,17.97
2017-07-28T01:34:59.851Z,17.96
2017-07-28T01:35:56.174Z,17.94
2017-07-28T01:36:52.466Z,17.93
2017-07-28T01:37:48.899Z,17.92
2017-07-28T01:38:46.226Z,17.91
2017-07-28T01:39:42.541Z,17.90
2017-07-28T01:40:38.902Z,17.88
2017-07-28T01:41:40.263Z,17.87
2017-07-28T01:46:06.784Z,17.81
2017-07-28T01:47:04.046Z,17.79
2017-07-28T01:48:00.512Z,17.76
2017-07-28T01:48:57.900Z,17.76
2017-07-28T01:49:54.468Z,17.74
2017-07-28T01:50:52.849Z,17.75
2017-07-28T01:51:50.284Z,17.73
2017-07-28T01:52:47.756Z,17.74
2017-07-28T01:53:44.336Z,17.72
2017-07-28T01:54:41.734Z,17.71
2017-07-28T01:55:38.042Z,17.70
2017-07-28T01:56:34.486Z,17.70
2017-07-28T01:57:31.663Z,17.68
2017-07-28T01:58:28.038Z,17.69
2017-07-28T01:59:24.487Z,17.67
2017-07-28T02:00:21.047Z,17.66
2017-07-28T02:01:17.468Z,17.66
2017-07-28T02:02:14.148Z,17.64
2017-07-28T02:03:10.443Z,17.63
2017-07-28T02:04:06.795Z,17.62
2017-07-28T02:05:03.115Z,17.61
2017-07-28T02:07:10.415Z,17.59
2017-07-28T02:08:07.731Z,17.56
2017-07-28T02:09:05.058Z,17.57
2017-07-28T02:10:01.416Z,17.55
2017-07-28T02:10:58.645Z,17.55
2017-07-28T02:11:59.129Z,17.53
2017-07-28T02:12:56.579Z,17.52
2017-07-28T02:13:54.191Z,17.51
2017-07-28T02:14:50.607Z,17.51
2017-07-28T02:17:03.379Z,17.48
2017-07-28T02:18:00.748Z,17.46
2017-07-28T02:18:57.163Z,17.44
2017-07-28T02:21:11.507Z,17.41
2017-07-28T02:22:12.041Z,17.38
2017-07-28T02:23:11.271Z,17.37
2017-07-28T02:24:09.743Z,17.35
2017-07-28T02:25:06.182Z,17.33
2017-07-28T02:27:13.451Z,17.30
2017-07-28T02:28:10.821Z,17.28
2017-07-28T02:29:09.142Z,17.28
2017-07-28T02:30:08.702Z,17.28
2017-07-28T02:31:06.627Z,17.26
2017-07-28T02:32:03.952Z,17.23
2017-07-28T02:33:00.426Z,17.24
2017-07-28T02:33:57.955Z,17.20
2017-07-28T02:34:54.375Z,17.19
2017-07-28T02:35:56.792Z,17.18
2017-07-28T02:36:53.265Z,17.17
2017-07-28T02:37:51.591Z,17.16
2017-07-28T02:38:48.016Z,17.13
2017-07-28T02:39:45.404Z,17.12
2017-07-28T02:40:42.235Z,17.11
2017-07-28T02:41:38.584Z,17.11
2017-07-28T02:42:35.143Z,17.08
2017-07-28T02:43:31.888Z,17.05
2017-07-28T02:44:28.325Z,17.05
2017-07-28T02:45:26.299Z,17.03
2017-07-28T02:46:27.424Z,16.99
2017-07-28T02:47:24.728Z,16.97
2017-07-28T02:48:21.316Z,16.96
2017-07-28T02:49:18.039Z,16.94
2017-07-28T02:50:14.712Z,16.93
2017-07-28T02:51:11.044Z,16.92
2017-07-28T02:52:07.428Z,16.90
2017-07-28T02:53:05.600Z,16.88
2017-07-28T02:54:03.972Z,16.87
2017-07-28T02:55:00.583Z,16.86
2017-07-28T02:55:58.917Z,16.83
2017-07-28T02:56:55.703Z,16.81
2017-07-28T02:57:53.540Z,16.79
2017-07-28T02:58:50.899Z,16.76
2017-07-28T02:59:48.141Z,16.75
2017-07-28T03:00:46.434Z,16.73
2017-07-28T03:01:43.368Z,16.72
2017-07-28T03:07:20.356Z,16.60
2017-07-28T03:08:17.348Z,16.58
2017-07-28T03:09:18.590Z,16.57
2017-07-28T03:10:22.863Z,16.55
2017-07-28T03:11:25.464Z,16.53
2017-07-28T03:12:22.555Z,16.51
2017-07-28T03:13:21.931Z,16.50
2017-07-28T03:14:21.505Z,16.49
2017-07-28T03:22:26.359Z,16.36
2017-07-28T03:23:30.117Z,16.34
2017-07-28T03:25:41.949Z,16.32
2017-07-28T03:26:38.774Z,16.28
2017-07-28T03:27:39.630Z,16.27
2017-07-28T03:28:42.179Z,16.26
2017-07-28T03:29:39.631Z,16.25
2017-07-28T03:35:44.596Z,16.18
2017-07-28T03:38:00.163Z,16.15
2017-07-28T03:40:35.974Z,16.13
2017-07-28T03:50:24.264Z,15.94
2017-07-28T03:58:40.936Z,15.88
2017-07-28T04:09:43.834Z,15.37
2017-07-28T04:11:05.704Z,15.32
2017-07-28T04:50:39.502Z,14.89
2017-07-28T04:51:49.199Z,14.91
2017-07-28T04:52:51.160Z,14.91
2017-07-28T05:01:18.652Z,15.10
2017-07-28T05:02:21.592Z,15.12
2017-07-28T05:10:59.801Z,15.28
2017-07-28T05:11:58.168Z,15.31
2017-07-28T05:14:11.520Z,15.35
2017-07-28T05:27:11.152Z,15.40
2017-07-28T05:37:03.851Z,15.62
2017-07-28T05:40:42.263Z,15.69
2017-07-28T05:50:25.703Z,15.76
2017-07-28T05:56:38.474Z,15.76
2017-07-28T06:03:56.865Z,15.79
2017-07-28T06:04:58.660Z,15.80
2017-07-28T06:13:37.750Z,15.84
2017-07-28T06:14:35.611Z,15.85
2017-07-28T06:15:38.471Z,15.85
2017-07-28T06:19:03.840Z,15.86
2017-07-28T06:26:25.587Z,15.91
2017-07-28T06:31:14.116Z,15.96
2017-07-28T06:44:42.276Z,16.05
2017-07-28T06:48:06.899Z,16.06
2017-07-28T06:49:05.492Z,16.07
2017-07-28T06:51:27.121Z,16.10
2017-07-28T06:52:23.939Z,16.10
2017-07-28T06:53:26.260Z,16.11
2017-07-28T06:55:34.065Z,16.15
2017-07-28T06:56:31.609Z,16.17
2017-07-28T06:57:28.310Z,16.19
2017-07-28T06:58:25.333Z,16.19
2017-07-28T07:00:42.298Z,16.22
2017-07-28T07:01:39.270Z,16.23
2017-07-28T07:02:36.023Z,16.24
2017-07-28T07:03:32.978Z,16.25
2017-07-28T07:04:31.399Z,16.26
2017-07-28T07:05:29.865Z,16.27
2017-07-28T07:06:27.291Z,16.28
2017-07-28T07:07:23.572Z,16.29
2017-07-28T07:08:19.834Z,16.32
2017-07-28T07:09:16.087Z,16.33
2017-07-28T07:10:12.329Z,16.35
2017-07-28T07:11:08.590Z,16.35
2017-07-28T07:12:04.888Z,16.36
2017-07-28T07:13:01.150Z,16.37
2017-07-28T07:13:57.405Z,16.37
2017-07-28T07:14:53.650Z,16.40
2017-07-28T07:15:49.889Z,16.40
2017-07-28T07:16:46.127Z,16.42
2017-07-28T07:17:42.378Z,16.45
2017-07-28T07:18:38.639Z,16.47
2017-07-28T07:19:34.881Z,16.47
2017-07-28T07:20:31.134Z,16.50
2017-07-28T07:21:27.392Z,16.50
2017-07-28T07:22:23.639Z,16.53
2017-07-28T07:23:19.894Z,16.55
2017-07-28T07:24:16.151Z,16.56
2017-07-28T07:25:12.408Z,16.58
2017-07-28T07:27:12.943Z,16.63
2017-07-28T07:28:09.351Z,16.66
2017-07-28T07:29:05.623Z,16.69
2017-07-28T07:30:01.866Z,16.72
2017-07-28T07:30:58.114Z,16.76
2017-07-28T07:31:54.370Z,16.77
2017-07-28T07:32:50.622Z,16.81
2017-07-28T07:33:46.886Z,16.82
2017-07-28T07:34:44.040Z,16.85
2017-07-28T07:35:40.279Z,16.88
2017-07-28T07:36:36.538Z,16.91
2017-07-28T07:37:32.786Z,16.95
2017-07-28T07:38:29.066Z,16.98
2017-07-28T07:39:25.357Z,17.03
2017-07-28T07:40:21.589Z,17.08
2017-07-28T07:41:17.835Z,17.10
2017-07-28T07:42:14.079Z,17.15
2017-07-28T07:43:10.318Z,17.19
2017-07-28T07:44:06.571Z,17.23
2017-07-28T07:45:02.832Z,17.28
2017-07-28T07:45:59.087Z,17.33
2017-07-28T07:46:55.329Z,17.37
2017-07-28T07:47:51.584Z,17.42
2017-07-28T07:48:47.845Z,17.45
2017-07-28T07:49:44.081Z,17.50
2017-07-28T07:50:40.340Z,17.54
2017-07-28T07:51:36.590Z,17.59
2017-07-28T07:52:32.835Z,17.64
2017-07-28T07:53:29.099Z,17.68
2017-07-28T07:54:25.378Z,17.73
2017-07-28T07:55:21.642Z,17.78
2017-07-28T07:56:17.917Z,17.82
2017-07-28T07:57:14.522Z,17.85
2017-07-28T07:58:10.759Z,17.90
2017-07-28T07:59:07.020Z,17.95
2017-07-28T08:00:03.271Z,17.99
2017-07-28T08:00:59.514Z,18.03
2017-07-28T08:01:55.754Z,18.09
2017-07-28T08:02:52.006Z,18.13
2017-07-28T08:03:48.279Z,18.16
2017-07-28T08:04:44.557Z,18.19
2017-07-28T08:05:40.808Z,18.24
2017-07-28T08:06:37.050Z,18.26
2017-07-28T08:07:33.305Z,18.31
2017-07-28T08:08:29.546Z,18.35
2017-07-28T08:09:25.807Z,18.37
2017-07-28T08:10:22.059Z,18.42
2017-07-28T08:11:18.302Z,18.45
2017-07-28T08:12:14.542Z,18.49
2017-07-28T08:13:10.797Z,18.54
2017-07-28T08:14:07.051Z,18.57
2017-07-28T08:15:03.317Z,18.61
2017-07-28T08:15:59.558Z,18.65
2017-07-28T08:16:55.809Z,18.69
2017-07-28T08:17:52.047Z,18.72
2017-07-28T08:18:48.291Z,18.77
2017-07-28T08:19:44.567Z,18.79
2017-07-28T08:20:40.810Z,18.84
2017-07-28T08:21:37.079Z,18.87
2017-07-28T08:22:33.322Z,18.91
2017-07-28T08:23:29.554Z,18.94
2017-07-28T08:24:25.794Z,18.97
2017-07-28T08:25:22.058Z,19.01
2017-07-28T08:26:18.286Z,19.04
2017-07-28T08:27:14.531Z,19.09
2017-07-28T08:28:10.778Z,19.11
2017-07-28T08:29:07.014Z,19.14
2017-07-28T08:30:03.284Z,19.16
2017-07-28T08:30:59.526Z,19.21
2017-07-28T08:31:55.763Z,19.23
2017-07-28T08:32:52.002Z,19.26
2017-07-28T08:33:48.234Z,19.30
2017-07-28T08:34:44.490Z,19.33
2017-07-28T08:35:40.741Z,19.37
2017-07-28T08:36:36.987Z,19.40
2017-07-28T08:37:33.230Z,19.43
2017-07-28T08:38:29.470Z,19.46
2017-07-28T08:39:25.938Z,19.48
2017-07-28T08:40:22.214Z,19.51
2017-07-28T08:41:18.459Z,19.55
2017-07-28T08:42:14.694Z,19.57
2017-07-28T08:43:10.923Z,19.61
2017-07-28T08:44:08.129Z,19.64
2017-07-28T08:45:04.371Z,19.67
2017-07-28T08:46:00.643Z,19.70
2017-07-28T08:46:56.885Z,19.73
2017-07-28T08:47:53.126Z,19.74
2017-07-28T08:48:49.358Z,19.77
2017-07-28T08:49:45.599Z,19.80
2017-07-28T08:50:41.862Z,19.83
2017-07-28T08:51:38.101Z,19.83
2017-07-28T08:52:34.330Z,19.85
2017-07-28T08:53:30.570Z,19.86
2017-07-28T08:54:26.814Z,19.88
2017-07-28T08:55:23.062Z,19.91
2017-07-28T08:56:19.322Z,19.93
2017-07-28T08:57:15.550Z,19.95
2017-07-28T08:58:11.782Z,19.97
2017-07-28T08:59:08.019Z,19.99
2017-07-28T09:00:04.272Z,20.01
2017-07-28T09:01:00.527Z,20.02
2017-07-28T09:01:56.776Z,20.03
2017-07-28T09:02:53.024Z,20.05
2017-07-28T09:03:50.165Z,20.07
2017-07-28T09:04:46.408Z,20.09
2017-07-28T09:05:42.638Z,20.10
2017-07-28T09:06:38.908Z,20.12
2017-07-28T09:07:35.163Z,20.14
2017-07-28T09:08:31.407Z,20.16
2017-07-28T09:09:27.662Z,20.18
2017-07-28T09:10:23.907Z,20.20
2017-07-28T09:11:20.157Z,20.22
2017-07-28T09:12:16.409Z,20.24
2017-07-28T09:13:12.658Z,20.27
2017-07-28T09:14:08.984Z,20.29
2017-07-28T09:15:05.200Z,20.30
2017-07-28T09:16:03.897Z,20.34
2017-07-28T09:17:00.174Z,20.35
2017-07-28T09:17:56.411Z,20.36
2017-07-28T09:18:52.653Z,20.39
2017-07-28T09:19:48.906Z,20.40
2017-07-28T09:20:45.146Z,20.43
2017-07-28T09:21:41.386Z,20.46
2017-07-28T09:22:37.619Z,20.50
2017-07-28T09:23:33.859Z,20.56
2017-07-28T09:24:30.133Z,20.61
2017-07-28T09:25:26.375Z,20.66
2017-07-28T09:26:22.645Z,20.71
2017-07-28T09:27:18.882Z,20.78
2017-07-28T09:28:15.130Z,20.82
2017-07-28T09:29:11.374Z,20.88
2017-07-28T09:30:07.630Z,20.95
2017-07-28T09:31:03.863Z,21.02
2017-07-28T09:32:00.861Z,21.09
2017-07-28T09:32:57.113Z,21.14
2017-07-28T09:33:53.358Z,21.21
2017-07-28T09:34:49.594Z,21.27
2017-07-28T09:35:45.822Z,21.33
2017-07-28T09:36:42.063Z,21.39
2017-07-28T09:37:38.376Z,21.41
2017-07-28T09:38:34.630Z,21.46
2017-07-28T09:39:30.871Z,21.49
2017-07-28T09:40:27.112Z,21.53
2017-07-28T09:41:23.351Z,21.58
2017-07-28T09:42:19.607Z,21.62
2017-07-28T09:43:15.842Z,21.67
2017-07-28T09:44:12.083Z,21.71
2017-07-28T09:45:08.335Z,21.75
2017-07-28T09:46:04.573Z,21.79
2017-07-28T09:47:00.818Z,21.82
2017-07-28T09:47:57.086Z,21.85
2017-07-28T09:48:53.359Z,21.88
2017-07-28T09:49:49.625Z,21.91
2017-07-28T09:50:45.890Z,21.96
2017-07-28T09:51:42.139Z,21.99
2017-07-28T09:52:38.393Z,22.01
2017-07-28T09:53:34.630Z,22.04
2017-07-28T09:54:30.871Z,22.04
2017-07-28T09:55:27.105Z,22.08
2017-07-28T09:56:34.814Z,22.11
2017-07-28T09:57:32.640Z,22.15
2017-07-28T09:58:29.408Z,22.21
2017-07-28T09:59:30.723Z,22.22
2017-07-28T10:00:27.634Z,22.25
2017-07-28T10:01:24.195Z,22.24
2017-07-28T10:02:20.451Z,22.25
2017-07-28T10:03:16.710Z,22.24
2017-07-28T10:04:12.934Z,22.24
2017-07-28T10:05:09.183Z,22.24
2017-07-28T10:06:05.432Z,22.23
2017-07-28T10:07:01.683Z,22.21
2017-07-28T10:07:57.946Z,22.22
2017-07-28T10:08:54.195Z,22.21
2017-07-28T10:09:50.439Z,22.21
2017-07-28T10:10:46.679Z,22.22
2017-07-28T10:11:42.930Z,22.24
2017-07-28T10:12:39.174Z,22.25
2017-07-28T10:13:35.435Z,22.27
2017-07-28T10:14:31.678Z,22.30
2017-07-28T10:15:27.926Z,22.30
2017-07-28T10:16:24.167Z,22.32
2017-07-28T10:17:20.415Z,22.35
2017-07-28T10:18:17.457Z,22.39
2017-07-28T10:22:33.911Z,22.48
2017-07-28T10:23:30.173Z,22.48
2017-07-28T10:24:26.510Z,22.46
2017-07-28T10:25:22.747Z,22.45
2017-07-28T10:26:18.989Z,22.43
2017-07-28T10:27:15.227Z,22.40
2017-07-28T10:28:11.465Z,22.39
2017-07-28T10:29:07.705Z,22.37
2017-07-28T10:30:03.940Z,22.34
2017-07-28T10:31:00.190Z,22.30
2017-07-28T10:31:56.427Z,22.27
2017-07-28T10:32:52.657Z,22.24
2017-07-28T10:33:48.919Z,22.20
2017-07-28T10:34:45.158Z,22.15
2017-07-28T10:35:41.394Z,22.11
2017-07-28T10:36:37.647Z,22.06
2017-07-28T10:37:33.883Z,22.01
2017-07-28T10:38:30.149Z,21.96
2017-07-28T10:39:26.412Z,21.94
2017-07-28T10:40:22.653Z,21.92
2017-07-28T10:41:18.898Z,21.91
2017-07-28T10:42:15.141Z,21.93
2017-07-28T10:43:11.379Z,21.93
2017-07-28T10:44:07.638Z,21.94
2017-07-28T10:45:03.894Z,21.97
2017-07-28T10:46:00.135Z,21.98
2017-07-28T10:46:56.372Z,22.00
2017-07-28T10:47:52.610Z,22.01
2017-07-28T10:48:48.850Z,22.00
2017-07-28T10:49:45.114Z,22.00
2017-07-28T10:50:41.351Z,22.02
2017-07-28T10:51:37.582Z,22.03
2017-07-28T10:52:33.823Z,22.05
2017-07-28T10:53:30.071Z,22.07
2017-07-28T10:54:26.338Z,22.10
2017-07-28T10:55:22.599Z,22.12
2017-07-28T10:56:18.842Z,22.14
2017-07-28T10:57:15.078Z,22.15
2017-07-28T10:58:11.314Z,22.15
2017-07-28T10:59:07.550Z,22.16
2017-07-28T11:00:03.814Z,22.16
2017-07-28T11:01:00.055Z,22.17
2017-07-28T11:01:56.306Z,22.17
2017-07-28T11:02:52.563Z,22.18
2017-07-28T11:03:49.275Z,22.18
2017-07-28T11:04:45.551Z,22.17
2017-07-28T11:05:41.798Z,22.17
2017-07-28T11:06:38.042Z,22.18
2017-07-28T11:07:34.309Z,22.18
2017-07-28T11:08:30.558Z,22.20
2017-07-28T11:09:26.807Z,22.20
2017-07-28T11:10:23.066Z,22.22
2017-07-28T11:11:19.310Z,22.21
2017-07-28T11:12:15.560Z,22.23
2017-07-28T11:13:11.799Z,22.22
2017-07-28T11:14:08.053Z,22.21
2017-07-28T11:15:04.320Z,22.21
2017-07-28T11:16:00.562Z,22.19
2017-07-28T11:16:56.803Z,22.18
2017-07-28T11:17:53.054Z,22.17
2017-07-28T11:18:49.331Z,22.18
2017-07-28T11:19:45.598Z,22.17
2017-07-28T11:20:41.872Z,22.16
2017-07-28T11:21:38.130Z,22.16
2017-07-28T11:22:34.387Z,22.16
2017-07-28T11:23:30.633Z,22.17
2017-07-28T11:24:26.889Z,22.19
2017-07-28T11:25:23.202Z,22.33
2017-07-28T11:26:19.439Z,22.62
2017-07-28T11:27:15.683Z,22.92
2017-07-28T11:28:11.925Z,23.15
2017-07-28T11:29:08.176Z,23.33
2017-07-28T11:30:04.422Z,23.48
2017-07-28T11:31:00.695Z,23.62
2017-07-28T11:31:56.948Z,23.73
2017-07-28T11:32:53.186Z,23.84
2017-07-28T11:33:49.430Z,23.93
2017-07-28T11:34:45.691Z,23.99
2017-07-28T11:35:42.024Z,24.05
2017-07-28T11:36:38.268Z,24.09
2017-07-28T11:37:34.522Z,24.13
2017-07-28T11:38:30.763Z,24.19
2017-07-28T11:39:27.015Z,24.23
2017-07-28T11:40:23.304Z,24.26
2017-07-28T11:41:19.563Z,24.27
2017-07-28T11:42:15.865Z,24.29
2017-07-28T11:43:12.190Z,24.30
2017-07-28T11:44:08.458Z,24.31
2017-07-28T11:45:04.733Z,24.30
2017-07-28T11:46:00.974Z,24.29
2017-07-28T11:46:57.215Z,24.28
2017-07-28T11:47:53.468Z,24.27
2017-07-28T11:48:49.723Z,24.28
2017-07-28T11:49:46.026Z,24.30
2017-07-28T11:50:42.294Z,24.34
2017-07-28T11:51:38.558Z,24.38
2017-07-28T11:52:34.803Z,24.41
2017-07-28T11:53:31.054Z,24.46
2017-07-28T11:54:27.306Z,24.51
2017-07-28T11:55:23.538Z,24.56
2017-07-28T11:56:19.804Z,24.60
2017-07-28T11:57:16.054Z,24.65
2017-07-28T11:58:12.299Z,24.69
2017-07-28T11:59:08.544Z,24.69
2017-07-28T12:00:04.798Z,24.71
2017-07-28T12:01:01.070Z,24.70
2017-07-28T12:01:57.322Z,24.71
2017-07-28T12:02:53.567Z,24.70
2017-07-28T12:03:49.799Z,24.69
2017-07-28T12:04:46.049Z,24.68
2017-07-28T12:05:42.351Z,24.67
2017-07-28T12:06:38.627Z,24.66
2017-07-28T12:07:34.928Z,24.64
2017-07-28T12:08:31.226Z,24.60
2017-07-28T12:09:27.471Z,24.59
2017-07-28T12:10:23.759Z,24.58
2017-07-28T12:11:20.089Z,24.59
2017-07-28T12:12:16.466Z,24.59
2017-07-28T12:13:12.986Z,24.63
2017-07-28T12:14:09.286Z,24.64
2017-07-28T12:15:05.587Z,24.68
2017-07-28T12:16:01.852Z,24.73
2017-07-28T12:16:58.126Z,24.79
2017-07-28T12:17:54.361Z,24.83
2017-07-28T12:18:50.619Z,24.88
2017-07-28T12:19:46.874Z,24.90
2017-07-28T12:20:43.123Z,24.94
2017-07-28T12:21:39.399Z,24.98
2017-07-28T12:22:35.634Z,25.01
2017-07-28T12:23:31.890Z,25.03
2017-07-28T12:24:28.135Z,25.03
2017-07-28T12:25:24.375Z,25.04
2017-07-28T12:26:20.614Z,25.05
2017-07-28T12:27:16.888Z,25.05
2017-07-28T12:28:13.191Z,25.04
2017-07-28T12:29:09.453Z,25.02
2017-07-28T12:30:05.707Z,25.00
2017-07-28T12:31:01.952Z,24.99
2017-07-28T12:31:58.227Z,24.97
2017-07-28T12:32:54.493Z,24.98
2017-07-28T12:33:50.773Z,25.02
2017-07-28T12:34:47.026Z,25.05
2017-07-28T12:35:43.274Z,25.07
2017-07-28T12:36:39.519Z,25.09
2017-07-28T12:37:35.778Z,25.11
2017-07-28T12:38:32.062Z,25.12
2017-07-28T12:39:28.342Z,25.14
2017-07-28T12:40:24.671Z,25.14
2017-07-28T12:41:20.919Z,25.16
2017-07-28T12:42:17.194Z,25.19
2017-07-28T12:43:13.433Z,25.21
2017-07-28T12:44:09.666Z,25.25
2017-07-28T12:45:07.803Z,25.30
2017-07-28T12:46:04.092Z,25.35
2017-07-28T12:47:00.389Z,25.38
2017-07-28T12:47:56.667Z,25.42
2017-07-28T12:48:52.914Z,25.45
2017-07-28T12:49:49.159Z,25.48
2017-07-28T12:50:45.423Z,25.51
2017-07-28T12:51:41.683Z,25.52
2017-07-28T12:52:37.942Z,25.55
2017-07-28T12:53:34.187Z,25.56
2017-07-28T12:54:30.454Z,25.57
2017-07-28T12:55:26.698Z,25.58
2017-07-28T12:56:22.954Z,25.58
2017-07-28T12:57:19.195Z,25.58
2017-07-28T12:58:15.455Z,25.56
2017-07-28T12:59:11.698Z,25.52
2017-07-28T13:00:07.977Z,25.47
2017-07-28T13:01:04.207Z,25.42
2017-07-28T13:02:00.457Z,25.41
2017-07-28T13:02:56.723Z,25.38
2017-07-28T13:03:52.971Z,25.33
2017-07-28T13:04:49.215Z,25.28
2017-07-28T13:05:45.462Z,25.23
2017-07-28T13:06:41.751Z,25.16
2017-07-28T13:07:37.987Z,25.15
2017-07-28T13:08:34.243Z,25.12
2017-07-28T13:09:30.479Z,25.10
2017-07-28T13:10:26.715Z,25.07
2017-07-28T13:11:22.971Z,25.07
2017-07-28T13:12:19.222Z,25.06
2017-07-28T13:13:15.603Z,25.02
2017-07-28T13:14:11.847Z,25.00
2017-07-28T13:15:08.086Z,24.96
2017-07-28T13:16:04.330Z,24.92
2017-07-28T13:17:00.586Z,24.86
2017-07-28T13:17:56.852Z,24.83
2017-07-28T13:18:53.112Z,24.80
2017-07-28T13:19:49.367Z,24.81
2017-07-28T13:20:45.745Z,24.81
2017-07-28T13:21:41.987Z,24.83
2017-07-28T13:22:38.235Z,24.87
2017-07-28T13:23:34.503Z,24.90
2017-07-28T13:24:30.806Z,24.96
2017-07-28T13:25:27.085Z,25.00
2017-07-28T13:26:23.400Z,25.02
2017-07-28T13:27:19.693Z,25.06
2017-07-28T13:28:15.942Z,25.10
2017-07-28T13:29:12.204Z,25.14
2017-07-28T13:30:08.438Z,25.17
2017-07-28T13:31:04.684Z,25.22
2017-07-28T13:32:00.971Z,25.24
2017-07-28T13:32:57.222Z,25.25
2017-07-28T13:33:54.511Z,25.26
2017-07-28T13:34:50.819Z,25.26
2017-07-28T13:35:47.090Z,25.25
2017-07-28T13:36:43.390Z,25.25
2017-07-28T13:37:39.673Z,25.25
2017-07-28T13:38:36.018Z,25.26
2017-07-28T13:39:32.283Z,25.25
2017-07-28T13:40:28.573Z,25.25
2017-07-28T13:41:24.866Z,25.24
2017-07-28T13:42:21.162Z,25.25
2017-07-28T13:43:17.406Z,25.28
2017-07-28T13:44:13.733Z,25.31
2017-07-28T13:45:09.987Z,25.38
2017-07-28T13:46:06.434Z,25.42
2017-07-28T13:47:07.395Z,25.46
2017-07-28T13:48:04.638Z,25.50
2017-07-28T13:49:00.899Z,25.53
2017-07-28T13:49:57.156Z,25.53
2017-07-28T13:50:53.501Z,25.52
2017-07-28T13:51:49.838Z,25.51
2017-07-28T13:52:47.100Z,25.48
2017-07-28T13:53:43.351Z,25.47
2017-07-28T13:54:39.619Z,25.46
2017-07-28T13:55:35.867Z,25.47
2017-07-28T13:56:32.131Z,25.45
2017-07-28T13:57:28.399Z,25.44
2017-07-28T13:58:24.675Z,25.42
2017-07-28T13:59:21.123Z,25.41
2017-07-28T14:00:17.359Z,25.40
2017-07-28T14:01:13.674Z,25.38
2017-07-28T14:02:09.934Z,25.38
2017-07-28T14:03:06.162Z,25.36
2017-07-28T14:04:02.506Z,25.36
2017-07-28T14:04:58.763Z,25.34
2017-07-28T14:05:55.006Z,25.34
2017-07-28T14:06:51.533Z,25.32
2017-07-28T14:07:47.766Z,25.29
2017-07-28T14:08:44.031Z,25.29
2017-07-28T14:09:40.277Z,25.27
2017-07-28T14:10:36.683Z,25.28
2017-07-28T14:11:32.967Z,25.26
2017-07-28T14:12:29.243Z,25.27
2017-07-28T14:13:25.483Z,25.27
2017-07-28T14:14:21.721Z,25.22
2017-07-28T14:15:17.991Z,25.22
2017-07-28T14:16:14.280Z,25.21
2017-07-28T14:17:10.583Z,25.20
2017-07-28T14:18:06.834Z,25.18
2017-07-28T14:19:03.079Z,25.17
2017-07-28T14:19:59.318Z,25.13
2017-07-28T14:20:56.585Z,25.11
2017-07-28T14:21:53.755Z,25.09
2017-07-28T14:22:49.995Z,25.08
2017-07-28T14:23:46.262Z,25.06
2017-07-28T14:24:42.503Z,25.07
2017-07-28T14:25:38.766Z,25.07
2017-07-28T14:26:34.998Z,25.09
2017-07-28T14:27:31.668Z,25.09
2017-07-28T14:28:31.954Z,25.13
2017-07-28T14:29:28.195Z,25.14
2017-07-28T14:30:24.462Z,25.15
2017-07-28T14:31:20.742Z,25.17
2017-07-28T14:32:17.339Z,25.19
2017-07-28T14:33:13.579Z,25.20
2017-07-28T14:34:09.831Z,25.22
2017-07-28T14:35:06.082Z,25.23
2017-07-28T14:36:02.393Z,25.24
2017-07-28T14:36:58.683Z,25.25
2017-07-28T14:37:54.926Z,25.25
2017-07-28T14:38:52.183Z,25.22
2017-07-28T14:39:48.435Z,25.22
2017-07-28T14:40:44.683Z,25.19
2017-07-28T14:41:40.974Z,25.17
2017-07-28T14:42:37.226Z,25.17
2017-07-28T14:43:33.474Z,25.16
2017-07-28T14:44:29.719Z,25.14
2017-07-28T14:45:25.975Z,25.10
2017-07-28T14:46:22.255Z,25.02
2017-07-28T14:47:19.103Z,24.94
2017-07-28T14:48:16.353Z,24.85
2017-07-28T14:49:12.718Z,24.78
2017-07-28T14:50:08.977Z,24.69
2017-07-28T14:51:05.306Z,24.63
2017-07-28T14:52:01.549Z,24.55
2017-07-28T14:52:57.808Z,24.47
2017-07-28T14:53:54.049Z,24.40
2017-07-28T14:54:50.289Z,24.35
2017-07-28T14:55:46.543Z,24.30
2017-07-28T14:56:42.823Z,24.27
2017-07-28T14:57:39.066Z,24.22
2017-07-28T14:58:35.322Z,24.18
2017-07-28T14:59:31.597Z,24.14
2017-07-28T15:00:27.855Z,24.10
2017-07-28T15:01:24.102Z,24.07
2017-07-28T15:02:20.358Z,24.05
2017-07-28T15:03:16.581Z,24.01
2017-07-28T15:04:12.832Z,24.00
2017-07-28T15:05:09.075Z,23.98
2017-07-28T15:06:05.334Z,23.95
2017-07-28T15:07:01.594Z,23.94
2017-07-28T15:07:57.850Z,23.93
2017-07-28T15:08:54.083Z,23.92
2017-07-28T15:09:50.449Z,23.90
2017-07-28T15:10:46.972Z,23.90
2017-07-28T15:11:43.498Z,23.90
2017-07-28T15:12:40.126Z,23.87
2017-07-28T15:14:52.966Z,23.86
2017-07-28T15:15:49.215Z,23.87
2017-07-28T15:16:45.459Z,23.86
2017-07-28T15:17:42.678Z,23.86
2017-07-28T15:18:38.927Z,23.87
2017-07-28T15:19:35.171Z,23.86
2017-07-28T15:20:33.137Z,23.83
2017-07-28T15:21:29.391Z,23.83
2017-07-28T15:22:25.666Z,23.83
2017-07-28T15:23:21.931Z,23.82
2017-07-28T15:24:18.205Z,23.82
2017-07-28T15:25:14.792Z,23.80
2017-07-28T15:26:11.038Z,23.78
2017-07-28T15:27:07.283Z,23.78
2017-07-28T15:28:05.558Z,23.76
2017-07-28T15:29:01.819Z,23.75
2017-07-28T15:29:58.083Z,23.74
2017-07-28T15:30:54.635Z,23.72
2017-07-28T15:31:50.930Z,23.72
2017-07-28T15:32:47.219Z,23.70
2017-07-28T15:33:43.489Z,23.69
2017-07-28T15:34:39.755Z,23.68
2017-07-28T15:35:36.019Z,23.66
2017-07-28T15:36:32.254Z,23.64
2017-07-28T15:37:28.514Z,23.62
2017-07-28T15:38:24.994Z,23.62
2017-07-28T15:39:21.230Z,23.60
2017-07-28T15:40:17.474Z,23.58
2017-07-28T15:41:13.762Z,23.58
2017-07-28T15:42:10.022Z,23.56
2017-07-28T15:43:06.278Z,23.57
2017-07-28T15:44:02.527Z,23.57
2017-07-28T15:44:58.770Z,23.57
2017-07-28T15:45:55.009Z,23.58
2017-07-28T15:46:51.262Z,23.58
2017-07-28T15:47:47.754Z,23.59
2017-07-28T15:48:44.022Z,23.60
2017-07-28T15:49:40.259Z,23.60
2017-07-28T15:50:36.522Z,23.60
2017-07-28T15:51:32.802Z,23.60
2017-07-28T15:52:29.046Z,23.62
2017-07-28T15:53:25.306Z,23.62
2017-07-28T15:54:21.541Z,23.62
2017-07-28T15:55:17.774Z,23.61
2017-07-28T15:56:14.031Z,23.62
2017-07-28T15:57:10.275Z,23.62
2017-07-28T15:58:06.661Z,23.62
2017-07-28T15:59:02.924Z,23.63
2017-07-28T15:59:59.195Z,23.65